Martin Express — WDB3169 — position and weather

sailwx.info

Track history (hours):
 
Tides and Currents Weather Stations Pressure Air Temp Water Temp Dewpoint Dewpoint Depression Visibility Wind Speed Wind Dir Waves Ship Positions

Martin Express

Owner: CF Martin Sulphur LP, La Porte, TX. More information available from US FCC via Universal Licensing System and Coast Guard Vessel Documentation Center.

Last reported at 2017-Nov-19 02:04 UTC. Time now 2017-Nov-20 02:08 UTC.
Position N 29°32' W 094°54'.

Length 18 m; draft 3 m.

Type: Towing. MMSI: 366884150.

Date/timePositionNaut miles runAvg speedWind from/ knotsBaromVisibWave heightAir tempDewpointWater temp
2017-Nov-19 02:04N 29°32' W 094°54'0 4.9
2017-Nov-19 01:59N 29°32' W 094°54'3 4.9
2017-Nov-19 01:25N 29°34' W 094°56'2 5.2
2017-Nov-19 00:59N 29°36' W 094°57'3 5.3
2017-Nov-19 00:30N 29°39' W 094°58'3 5.6
2017-Nov-19 00:00N 29°41' W 094°59'10 0.5
2017-Nov-18 03:17N 29°45' W 095°11'2 6.5
2017-Nov-18 02:59N 29°44' W 095°09'3 5.6
2017-Nov-18 02:22N 29°46' W 095°05'2 5.8
2017-Nov-18 02:00N 29°44' W 095°03'3 6.3
2017-Nov-18 01:30N 29°42' W 095°01'3 6.8
2017-Nov-18 01:00N 29°40' W 094°58'4 7.2
2017-Nov-18 00:30N 29°36' W 094°57'4 7.3
2017-Nov-18 00:00N 29°33' W 094°55'2 0.1
2017-Nov-16 22:06N 29°31' W 094°53'0 4.8
2017-Nov-16 22:00N 29°32' W 094°54'3 5.2
2017-Nov-16 21:28N 29°34' W 094°55'3 5.4
2017-Nov-16 20:59N 29°36' W 094°57'3 5.4
2017-Nov-16 20:30N 29°39' W 094°58'3 5.7
2017-Nov-16 20:00N 29°41' W 094°59'3 0.3
2017-Nov-16 11:10N 29°44' W 095°01'1 4.9
2017-Nov-16 10:59N 29°43' W 095°01'3 6.4
2017-Nov-16 10:30N 29°41' W 094°59'3 7.0
2017-Nov-16 10:00N 29°37' W 094°58'4 7.0
2017-Nov-16 09:30N 29°34' W 094°56'3 0.1
2017-Nov-15 07:16N 29°32' W 094°54'2 5.6
2017-Nov-15 06:54N 29°34' W 094°55'2 5.7
2017-Nov-15 06:30N 29°36' W 094°57'3 6.1
2017-Nov-15 06:00N 29°38' W 094°58'3 6.4
2017-Nov-15 05:30N 29°41' W 094°59'2 0.2
2017-Nov-14 19:38N 29°42' W 095°01'1 6.7
2017-Nov-14 19:29N 29°42' W 094°60'3 6.4
2017-Nov-14 19:00N 29°39' W 094°58'3 6.8
2017-Nov-14 18:30N 29°36' W 094°57'3 6.9
2017-Nov-14 18:00N 29°33' W 094°55'2 0.1
2017-Nov-13 23:09N 29°32' W 094°54'2 5.5
2017-Nov-13 22:53N 29°33' W 094°55'2 5.4
2017-Nov-13 22:28N 29°35' W 094°56'2 5.0
2017-Nov-13 22:00N 29°37' W 094°57'9 0.4
2017-Nov-13 01:40N 29°30' W 094°52'1 6.2
2017-Nov-13 01:27N 29°31' W 094°53'3 6.1
2017-Nov-13 00:58N 29°33' W 094°55'3 6.1
2017-Nov-13 00:30N 29°36' W 094°57'3 6.0
2017-Nov-13 00:00N 29°38' W 094°58'3 6.2
2017-Nov-12 23:30N 29°41' W 094°59'7 4.5
2017-Nov-12 21:55N 29°45' W 095°06'2 5.4
2017-Nov-12 21:29N 29°44' W 095°09'2 5.2
2017-Nov-12 21:00N 29°45' W 095°12'3 4.9
2017-Nov-12 20:28N 29°43' W 095°14'0 0.5
2017-Nov-12 19:59N 29°43' W 095°14'0 0.0
2017-Nov-12 19:30N 29°43' W 095°14'0 0.0
2017-Nov-12 19:00N 29°43' W 095°14'0 0.0
2017-Nov-12 18:30N 29°43' W 095°14'0 0.0
2017-Nov-12 18:00N 29°43' W 095°14'0 0.0
2017-Nov-12 17:30N 29°43' W 095°14'0 0.0
2017-Nov-12 17:00N 29°43' W 095°14'0 0.0
2017-Nov-12 16:30N 29°43' W 095°14'0 0.0
2017-Nov-12 16:00N 29°43' W 095°14'0 0.0
2017-Nov-12 15:30N 29°43' W 095°14'0 0.0
2017-Nov-12 15:00N 29°43' W 095°14'0 0.0
2017-Nov-12 14:30N 29°43' W 095°14'0 0.0
2017-Nov-12 14:00N 29°43' W 095°14'0 0.0
2017-Nov-12 13:30N 29°43' W 095°14'0 0.0
2017-Nov-12 13:00N 29°43' W 095°14'0 0.0
2017-Nov-12 12:30N 29°43' W 095°14'0 0.0
2017-Nov-12 12:00N 29°43' W 095°14'0 0.0
2017-Nov-12 11:30N 29°43' W 095°14'0 0.0
2017-Nov-12 11:00N 29°43' W 095°14'0 0.0
2017-Nov-12 10:30N 29°43' W 095°14'0 0.0
2017-Nov-12 10:00N 29°43' W 095°14'0 0.0
2017-Nov-12 09:30N 29°43' W 095°14'0 0.0
2017-Nov-12 09:00N 29°43' W 095°14'0 0.0
2017-Nov-12 08:30N 29°43' W 095°14'0 0.0
2017-Nov-12 08:00N 29°43' W 095°14'0 0.0
2017-Nov-12 07:30N 29°43' W 095°14'0 0.0
2017-Nov-12 07:00N 29°43' W 095°14'0 0.0
2017-Nov-12 06:30N 29°43' W 095°14'0 0.0
2017-Nov-12 06:00N 29°43' W 095°14'0 0.0
2017-Nov-12 05:30N 29°43' W 095°14'0 0.0
2017-Nov-12 04:59N 29°43' W 095°14'0 0.0
2017-Nov-12 04:30N 29°43' W 095°14'0 0.0
2017-Nov-12 04:00N 29°43' W 095°14'0 0.0
2017-Nov-12 03:30N 29°43' W 095°14'0 0.0
2017-Nov-12 03:00N 29°43' W 095°14'0 0.0
2017-Nov-12 02:30N 29°43' W 095°14'0 0.0
2017-Nov-12 02:00N 29°43' W 095°14'0 0.0
2017-Nov-12 01:30N 29°43' W 095°14'0 0.0
2017-Nov-12 01:00N 29°43' W 095°14'0 0.0
2017-Nov-12 00:30N 29°43' W 095°14'0 0.0
2017-Nov-12 00:00N 29°43' W 095°14'0 0.0
2017-Nov-11 23:30N 29°43' W 095°14'0 0.0
2017-Nov-11 23:00N 29°43' W 095°14'0 0.0
2017-Nov-11 22:30N 29°43' W 095°14'0 0.0
2017-Nov-11 22:00N 29°43' W 095°14'0 0.0
2017-Nov-11 21:30N 29°43' W 095°14'0 0.0
2017-Nov-11 21:00N 29°43' W 095°14'0 0.0
2017-Nov-11 20:25N 29°43' W 095°14'0 0.0
2017-Nov-11 19:59N 29°43' W 095°14'0 0.0
2017-Nov-11 19:30N 29°43' W 095°14'0 0.0
2017-Nov-11 19:00N 29°43' W 095°14'0 0.0
2017-Nov-11 18:30N 29°43' W 095°14'0 0.0
2017-Nov-11 18:00N 29°43' W 095°14'0 0.0
2017-Nov-11 17:30N 29°43' W 095°14'0 0.0
2017-Nov-11 17:00N 29°43' W 095°14'0 0.0
2017-Nov-11 16:30N 29°43' W 095°14'0 0.0
2017-Nov-11 16:00N 29°43' W 095°14'0 0.0
2017-Nov-11 15:30N 29°43' W 095°14'1 1.8
2017-Nov-11 14:57N 29°43' W 095°13'1 2.3
2017-Nov-11 14:30N 29°43' W 095°14'0 0.0
2017-Nov-11 14:00N 29°43' W 095°14'0 0.0
2017-Nov-11 13:30N 29°43' W 095°14'0 0.0
2017-Nov-11 13:00N 29°43' W 095°14'0 0.0
2017-Nov-11 12:30N 29°43' W 095°14'0 0.0
2017-Nov-11 12:00N 29°43' W 095°14'0 0.0
2017-Nov-11 11:30N 29°43' W 095°14'2 4.0
2017-Nov-11 10:59N 29°44' W 095°12'3 6.2
2017-Nov-11 10:30N 29°44' W 095°09'4 5.9
2017-Nov-11 09:51N 29°46' W 095°04'2 6.4
2017-Nov-11 09:28N 29°44' W 095°02'3 6.0
2017-Nov-11 09:00N 29°42' W 095°00'3 7.0
2017-Nov-11 08:30N 29°39' W 094°58'3 6.9
2017-Nov-11 08:00N 29°36' W 094°57'3 6.9
2017-Nov-11 07:30N 29°33' W 094°54'1 0.2
2017-Nov-10 23:15N 29°32' W 094°54'2 6.0
2017-Nov-10 22:57N 29°33' W 094°55'3 6.0
2017-Nov-10 22:28N 29°36' W 094°57'3 6.1
2017-Nov-10 22:00N 29°38' W 094°58'3 6.6
2017-Nov-10 21:30N 29°41' W 094°59'2 0.4
2017-Nov-10 14:33N 29°43' W 095°01'1 6.4
2017-Nov-10 14:25N 29°42' W 095°01'2 5.8
2017-Nov-10 14:00N 29°41' W 094°59'3 6.7
2017-Nov-10 13:30N 29°38' W 094°58'3 6.7
2017-Nov-10 13:00N 29°35' W 094°56'3 6.5
2017-Nov-10 12:30N 29°32' W 094°54'1 0.2
2017-Nov-10 02:46N 29°31' W 094°53'1 4.6
2017-Nov-10 02:29N 29°32' W 094°54'3 5.2
2017-Nov-10 01:57N 29°34' W 094°56'3 5.9
2017-Nov-10 01:30N 29°37' W 094°57'3 5.9
2017-Nov-10 00:59N 29°39' W 094°58'9 5.2
2017-Nov-09 23:21N 29°45' W 095°06'2 5.9
2017-Nov-09 22:57N 29°44' W 095°08'3 5.8
2017-Nov-09 22:29N 29°45' W 095°11'3 5.4
2017-Nov-09 22:00N 29°43' W 095°14'0 0.4
2017-Nov-09 21:28N 29°43' W 095°14'0 0.0
2017-Nov-09 20:48N 29°43' W 095°14'0 0.0
2017-Nov-09 20:23N 29°43' W 095°14'0 0.0
2017-Nov-09 20:00N 29°43' W 095°14'0 0.0
2017-Nov-09 19:29N 29°43' W 095°14'0 0.0
2017-Nov-09 14:32N 29°43' W 095°14'0 0.0
2017-Nov-09 14:11N 29°43' W 095°14'0 0.0
2017-Nov-09 13:48N 29°43' W 095°14'0 0.0
2017-Nov-09 13:25N 29°43' W 095°14'0 0.0
2017-Nov-09 12:57N 29°43' W 095°14'0 0.0
2017-Nov-09 12:30N 29°43' W 095°14'0 0.0
2017-Nov-09 12:00N 29°43' W 095°14'0 0.0
2017-Nov-09 11:30N 29°43' W 095°14'0 0.0
2017-Nov-09 11:00N 29°43' W 095°14'0 0.0
2017-Nov-09 10:30N 29°43' W 095°14'3 5.2
2017-Nov-09 09:59N 29°45' W 095°11'3 6.4
2017-Nov-09 09:28N 29°44' W 095°08'3 5.6
2017-Nov-09 08:52N 29°45' W 095°04'2 5.7
2017-Nov-09 08:29N 29°44' W 095°02'3 5.4
2017-Nov-09 08:00N 29°42' W 095°00'3 6.4
2017-Nov-09 07:30N 29°39' W 094°58'3 7.0
2017-Nov-09 07:00N 29°36' W 094°57'4 7.0
2017-Nov-09 06:30N 29°33' W 094°55'  
Track history (hours):
 
Tides and Currents Weather Stations Pressure Air Temp Water Temp Dewpoint Dewpoint Depression Visibility Wind Speed Wind Dir Waves Ship Positions

Martin Express

Owner: CF Martin Sulphur LP, La Porte, TX. More information available from US FCC via Universal Licensing System and Coast Guard Vessel Documentation Center.

Last reported at 2017-Nov-19 02:04 UTC. Time now 2017-Nov-20 02:08 UTC.
Position N 29°32' W 094°54'.

Length 18 m; draft 3 m.

Type: Towing. MMSI: 366884150.

Date/timePositionNaut miles runAvg speedWind from/ knotsBaromVisibWave heightAir tempDewpointWater temp
2017-Nov-19 02:04N 29°32' W 094°54'0 4.9
2017-Nov-19 01:59N 29°32' W 094°54'3 4.9
2017-Nov-19 01:25N 29°34' W 094°56'2 5.2
2017-Nov-19 00:59N 29°36' W 094°57'3 5.3
2017-Nov-19 00:30N 29°39' W 094°58'3 5.6
2017-Nov-19 00:00N 29°41' W 094°59'10 0.5
2017-Nov-18 03:17N 29°45' W 095°11'2 6.5
2017-Nov-18 02:59N 29°44' W 095°09'3 5.6
2017-Nov-18 02:22N 29°46' W 095°05'2 5.8
2017-Nov-18 02:00N 29°44' W 095°03'3 6.3
2017-Nov-18 01:30N 29°42' W 095°01'3 6.8
2017-Nov-18 01:00N 29°40' W 094°58'4 7.2
2017-Nov-18 00:30N 29°36' W 094°57'4 7.3
2017-Nov-18 00:00N 29°33' W 094°55'2 0.1
2017-Nov-16 22:06N 29°31' W 094°53'0 4.8
2017-Nov-16 22:00N 29°32' W 094°54'3 5.2
2017-Nov-16 21:28N 29°34' W 094°55'3 5.4
2017-Nov-16 20:59N 29°36' W 094°57'3 5.4
2017-Nov-16 20:30N 29°39' W 094°58'3 5.7
2017-Nov-16 20:00N 29°41' W 094°59'3 0.3
2017-Nov-16 11:10N 29°44' W 095°01'1 4.9
2017-Nov-16 10:59N 29°43' W 095°01'3 6.4
2017-Nov-16 10:30N 29°41' W 094°59'3 7.0
2017-Nov-16 10:00N 29°37' W 094°58'4 7.0
2017-Nov-16 09:30N 29°34' W 094°56'3 0.1
2017-Nov-15 07:16N 29°32' W 094°54'2 5.6
2017-Nov-15 06:54N 29°34' W 094°55'2 5.7
2017-Nov-15 06:30N 29°36' W 094°57'3 6.1
2017-Nov-15 06:00N 29°38' W 094°58'3 6.4
2017-Nov-15 05:30N 29°41' W 094°59'2 0.2
2017-Nov-14 19:38N 29°42' W 095°01'1 6.7
2017-Nov-14 19:29N 29°42' W 094°60'3 6.4
2017-Nov-14 19:00N 29°39' W 094°58'3 6.8
2017-Nov-14 18:30N 29°36' W 094°57'3 6.9
2017-Nov-14 18:00N 29°33' W 094°55'2 0.1
2017-Nov-13 23:09N 29°32' W 094°54'2 5.5
2017-Nov-13 22:53N 29°33' W 094°55'2 5.4
2017-Nov-13 22:28N 29°35' W 094°56'2 5.0
2017-Nov-13 22:00N 29°37' W 094°57'9 0.4
2017-Nov-13 01:40N 29°30' W 094°52'1 6.2
2017-Nov-13 01:27N 29°31' W 094°53'3 6.1
2017-Nov-13 00:58N 29°33' W 094°55'3 6.1
2017-Nov-13 00:30N 29°36' W 094°57'3 6.0
2017-Nov-13 00:00N 29°38' W 094°58'3 6.2
2017-Nov-12 23:30N 29°41' W 094°59'7 4.5
2017-Nov-12 21:55N 29°45' W 095°06'2 5.4
2017-Nov-12 21:29N 29°44' W 095°09'2 5.2
2017-Nov-12 21:00N 29°45' W 095°12'3 4.9
2017-Nov-12 20:28N 29°43' W 095°14'0 0.5
2017-Nov-12 19:59N 29°43' W 095°14'0 0.0
2017-Nov-12 19:30N 29°43' W 095°14'0 0.0
2017-Nov-12 19:00N 29°43' W 095°14'0 0.0
2017-Nov-12 18:30N 29°43' W 095°14'0 0.0
2017-Nov-12 18:00N 29°43' W 095°14'0 0.0
2017-Nov-12 17:30N 29°43' W 095°14'0 0.0
2017-Nov-12 17:00N 29°43' W 095°14'0 0.0
2017-Nov-12 16:30N 29°43' W 095°14'0 0.0
2017-Nov-12 16:00N 29°43' W 095°14'0 0.0
2017-Nov-12 15:30N 29°43' W 095°14'0 0.0
2017-Nov-12 15:00N 29°43' W 095°14'0 0.0
2017-Nov-12 14:30N 29°43' W 095°14'0 0.0
2017-Nov-12 14:00N 29°43' W 095°14'0 0.0
2017-Nov-12 13:30N 29°43' W 095°14'0 0.0
2017-Nov-12 13:00N 29°43' W 095°14'0 0.0
2017-Nov-12 12:30N 29°43' W 095°14'0 0.0
2017-Nov-12 12:00N 29°43' W 095°14'0 0.0
2017-Nov-12 11:30N 29°43' W 095°14'0 0.0
2017-Nov-12 11:00N 29°43' W 095°14'0 0.0
2017-Nov-12 10:30N 29°43' W 095°14'0 0.0
2017-Nov-12 10:00N 29°43' W 095°14'0 0.0
2017-Nov-12 09:30N 29°43' W 095°14'0 0.0
2017-Nov-12 09:00N 29°43' W 095°14'0 0.0
2017-Nov-12 08:30N 29°43' W 095°14'0 0.0
2017-Nov-12 08:00N 29°43' W 095°14'0 0.0
2017-Nov-12 07:30N 29°43' W 095°14'0 0.0
2017-Nov-12 07:00N 29°43' W 095°14'0 0.0
2017-Nov-12 06:30N 29°43' W 095°14'0 0.0
2017-Nov-12 06:00N 29°43' W 095°14'0 0.0
2017-Nov-12 05:30N 29°43' W 095°14'0 0.0
2017-Nov-12 04:59N 29°43' W 095°14'0 0.0
2017-Nov-12 04:30N 29°43' W 095°14'0 0.0
2017-Nov-12 04:00N 29°43' W 095°14'0 0.0
2017-Nov-12 03:30N 29°43' W 095°14'0 0.0
2017-Nov-12 03:00N 29°43' W 095°14'0 0.0
2017-Nov-12 02:30N 29°43' W 095°14'0 0.0
2017-Nov-12 02:00N 29°43' W 095°14'0 0.0
2017-Nov-12 01:30N 29°43' W 095°14'0 0.0
2017-Nov-12 01:00N 29°43' W 095°14'0 0.0
2017-Nov-12 00:30N 29°43' W 095°14'0 0.0
2017-Nov-12 00:00N 29°43' W 095°14'0 0.0
2017-Nov-11 23:30N 29°43' W 095°14'0 0.0
2017-Nov-11 23:00N 29°43' W 095°14'0 0.0
2017-Nov-11 22:30N 29°43' W 095°14'0 0.0
2017-Nov-11 22:00N 29°43' W 095°14'0 0.0
2017-Nov-11 21:30N 29°43' W 095°14'0 0.0
2017-Nov-11 21:00N 29°43' W 095°14'0 0.0
2017-Nov-11 20:25N 29°43' W 095°14'0 0.0
2017-Nov-11 19:59N 29°43' W 095°14'0 0.0
2017-Nov-11 19:30N 29°43' W 095°14'0 0.0
2017-Nov-11 19:00N 29°43' W 095°14'0 0.0
2017-Nov-11 18:30N 29°43' W 095°14'0 0.0
2017-Nov-11 18:00N 29°43' W 095°14'0 0.0
2017-Nov-11 17:30N 29°43' W 095°14'0 0.0
2017-Nov-11 17:00N 29°43' W 095°14'0 0.0
2017-Nov-11 16:30N 29°43' W 095°14'0 0.0
2017-Nov-11 16:00N 29°43' W 095°14'0 0.0
2017-Nov-11 15:30N 29°43' W 095°14'1 1.8
2017-Nov-11 14:57N 29°43' W 095°13'1 2.3
2017-Nov-11 14:30N 29°43' W 095°14'0 0.0
2017-Nov-11 14:00N 29°43' W 095°14'0 0.0
2017-Nov-11 13:30N 29°43' W 095°14'0 0.0
2017-Nov-11 13:00N 29°43' W 095°14'0 0.0
2017-Nov-11 12:30N 29°43' W 095°14'0 0.0
2017-Nov-11 12:00N 29°43' W 095°14'0 0.0
2017-Nov-11 11:30N 29°43' W 095°14'2 4.0
2017-Nov-11 10:59N 29°44' W 095°12'3 6.2
2017-Nov-11 10:30N 29°44' W 095°09'4 5.9
2017-Nov-11 09:51N 29°46' W 095°04'2 6.4
2017-Nov-11 09:28N 29°44' W 095°02'3 6.0
2017-Nov-11 09:00N 29°42' W 095°00'3 7.0
2017-Nov-11 08:30N 29°39' W 094°58'3 6.9
2017-Nov-11 08:00N 29°36' W 094°57'3 6.9
2017-Nov-11 07:30N 29°33' W 094°54'1 0.2
2017-Nov-10 23:15N 29°32' W 094°54'2 6.0
2017-Nov-10 22:57N 29°33' W 094°55'3 6.0
2017-Nov-10 22:28N 29°36' W 094°57'3 6.1
2017-Nov-10 22:00N 29°38' W 094°58'3 6.6
2017-Nov-10 21:30N 29°41' W 094°59'2 0.4
2017-Nov-10 14:33N 29°43' W 095°01'1 6.4
2017-Nov-10 14:25N 29°42' W 095°01'2 5.8
2017-Nov-10 14:00N 29°41' W 094°59'3 6.7
2017-Nov-10 13:30N 29°38' W 094°58'3 6.7
2017-Nov-10 13:00N 29°35' W 094°56'3 6.5
2017-Nov-10 12:30N 29°32' W 094°54'1 0.2
2017-Nov-10 02:46N 29°31' W 094°53'1 4.6
2017-Nov-10 02:29N 29°32' W 094°54'3 5.2
2017-Nov-10 01:57N 29°34' W 094°56'3 5.9
2017-Nov-10 01:30N 29°37' W 094°57'3 5.9
2017-Nov-10 00:59N 29°39' W 094°58'9 5.2
2017-Nov-09 23:21N 29°45' W 095°06'2 5.9
2017-Nov-09 22:57N 29°44' W 095°08'3 5.8
2017-Nov-09 22:29N 29°45' W 095°11'3 5.4
2017-Nov-09 22:00N 29°43' W 095°14'0 0.4
2017-Nov-09 21:28N 29°43' W 095°14'0 0.0
2017-Nov-09 20:48N 29°43' W 095°14'0 0.0
2017-Nov-09 20:23N 29°43' W 095°14'0 0.0
2017-Nov-09 20:00N 29°43' W 095°14'0 0.0
2017-Nov-09 19:29N 29°43' W 095°14'0 0.0
2017-Nov-09 14:32N 29°43' W 095°14'0 0.0
2017-Nov-09 14:11N 29°43' W 095°14'0 0.0
2017-Nov-09 13:48N 29°43' W 095°14'0 0.0
2017-Nov-09 13:25N 29°43' W 095°14'0 0.0
2017-Nov-09 12:57N 29°43' W 095°14'0 0.0
2017-Nov-09 12:30N 29°43' W 095°14'0 0.0
2017-Nov-09 12:00N 29°43' W 095°14'0 0.0
2017-Nov-09 11:30N 29°43' W 095°14'0 0.0
2017-Nov-09 11:00N 29°43' W 095°14'0 0.0
2017-Nov-09 10:30N 29°43' W 095°14'3 5.2
2017-Nov-09 09:59N 29°45' W 095°11'3 6.4
2017-Nov-09 09:28N 29°44' W 095°08'3 5.6
2017-Nov-09 08:52N 29°45' W 095°04'2 5.7
2017-Nov-09 08:29N 29°44' W 095°02'3 5.4
2017-Nov-09 08:00N 29°42' W 095°00'3 6.4
2017-Nov-09 07:30N 29°39' W 094°58'3 7.0
2017-Nov-09 07:00N 29°36' W 094°57'4 7.0
2017-Nov-09 06:30N 29°33' W 094°55'  

Dump ship's entire track history